createdAt,value
2022-10-09T00:00:06.016Z,5.53
2022-10-09T00:05:07.609Z,5.10
2022-10-09T00:10:09.122Z,4.82
2022-10-09T00:15:10.718Z,4.72
2022-10-09T00:20:12.690Z,4.28
2022-10-09T00:25:14.091Z,4.25
2022-10-09T00:30:15.498Z,3.65
2022-10-09T00:35:16.796Z,3.95
2022-10-09T00:40:18.187Z,3.53
2022-10-09T00:45:20.679Z,3.50
2022-10-09T00:50:35.575Z,3.10
2022-10-09T00:55:38.068Z,2.90
2022-10-09T01:00:39.950Z,3.17
2022-10-09T01:05:41.333Z,2.85
2022-10-09T01:10:47.450Z,3.22
2022-10-09T01:15:48.846Z,2.80
2022-10-09T01:21:12.379Z,3.20
2022-10-09T01:26:13.745Z,3.30
2022-10-09T01:31:17.093Z,3.10
2022-10-09T01:36:19.516Z,3.28
2022-10-09T01:41:20.955Z,3.40
2022-10-09T01:46:24.196Z,3.90
2022-10-09T01:51:27.450Z,3.13
2022-10-09T01:56:31.085Z,3.03
2022-10-09T02:01:33.953Z,3.20
2022-10-09T02:06:38.553Z,3.30
2022-10-09T02:11:41.006Z,3.10
2022-10-09T02:16:44.667Z,3.38
2022-10-09T02:21:54.544Z,3.28
2022-10-09T02:26:57.511Z,3.47
2022-10-09T02:31:58.929Z,3.40
2022-10-09T02:37:00.372Z,3.13
2022-10-09T02:42:01.800Z,3.03
2022-10-09T02:47:03.415Z,3.20
2022-10-09T02:52:06.577Z,2.72
2022-10-09T02:57:07.918Z,3.00
2022-10-09T03:02:09.365Z,3.30
2022-10-09T03:07:10.961Z,2.80
2022-10-09T03:12:12.362Z,2.47
2022-10-09T03:17:13.825Z,2.90
2022-10-09T03:22:15.181Z,3.13
2022-10-09T03:27:16.521Z,2.45
2022-10-09T03:32:18.024Z,2.60
2022-10-09T03:37:19.555Z,2.30
2022-10-09T03:42:20.988Z,2.60
2022-10-09T03:47:22.340Z,2.58
2022-10-09T03:52:24.019Z,2.50
2022-10-09T03:57:25.432Z,3.00
2022-10-09T04:02:26.937Z,2.97
2022-10-09T04:07:28.381Z,2.92
2022-10-09T04:12:29.721Z,3.25
2022-10-09T04:17:31.043Z,3.50
2022-10-09T04:22:32.499Z,3.50
2022-10-09T04:27:33.829Z,3.40
2022-10-09T04:32:35.203Z,3.60
2022-10-09T04:37:36.824Z,3.33
2022-10-09T04:42:38.574Z,4.38
2022-10-09T04:47:40.427Z,3.38
2022-10-09T04:52:41.729Z,3.47
2022-10-09T04:57:43.053Z,3.45
2022-10-09T05:02:44.472Z,3.60
2022-10-09T05:07:45.844Z,3.50
2022-10-09T05:12:47.455Z,3.72
2022-10-09T05:17:48.945Z,3.60
2022-10-09T05:22:50.827Z,3.75
2022-10-09T05:27:52.417Z,3.53
2022-10-09T05:32:53.780Z,3.20
2022-10-09T05:37:55.195Z,3.80
2022-10-09T05:42:56.575Z,3.88
2022-10-09T05:47:57.914Z,4.35
2022-10-09T05:52:59.302Z,4.03
2022-10-09T05:58:00.776Z,4.03
2022-10-09T06:03:02.742Z,4.18
2022-10-09T06:08:04.182Z,3.65
2022-10-09T06:13:05.558Z,4.25
2022-10-09T06:18:06.992Z,3.88
2022-10-09T06:23:09.330Z,4.05
2022-10-09T06:28:10.851Z,3.42
2022-10-09T06:33:12.264Z,3.22
2022-10-09T06:38:15.392Z,2.92
2022-10-09T06:43:16.765Z,3.20
2022-10-09T06:48:18.136Z,3.53
2022-10-09T06:53:19.592Z,3.58
2022-10-09T06:58:21.017Z,3.13
2022-10-09T07:03:22.444Z,4.10
2022-10-09T07:08:23.909Z,4.90
2022-10-09T07:13:25.326Z,4.70
2022-10-09T07:18:26.645Z,4.10
2022-10-09T07:23:28.733Z,4.13
2022-10-09T07:28:30.381Z,4.53
2022-10-09T07:33:31.901Z,4.68
2022-10-09T07:38:33.505Z,4.40
2022-10-09T07:43:35.695Z,3.92
2022-10-09T07:48:37.368Z,4.32
2022-10-09T07:53:40.691Z,4.05
2022-10-09T07:58:42.832Z,3.60
2022-10-09T08:03:44.195Z,4.07
2022-10-09T08:08:48.623Z,3.22
2022-10-09T08:13:51.998Z,4.05
2022-10-09T08:18:59.625Z,4.07
2022-10-09T08:24:01.063Z,3.17
2022-10-09T08:29:03.535Z,3.20
2022-10-09T08:34:05.021Z,3.47
2022-10-09T08:39:06.439Z,2.80
2022-10-09T08:44:13.964Z,3.28
2022-10-09T08:49:35.626Z,3.03
2022-10-09T08:54:39.204Z,3.22
2022-10-09T08:59:40.789Z,2.95
2022-10-09T09:04:52.426Z,2.88
2022-10-09T09:10:02.862Z,3.47
2022-10-09T09:15:05.277Z,3.40
2022-10-09T09:20:12.387Z,3.08
2022-10-09T09:25:35.046Z,3.25
2022-10-09T09:30:40.833Z,3.70
2022-10-09T09:36:05.404Z,3.67
2022-10-09T09:41:06.824Z,3.63
2022-10-09T09:46:12.902Z,3.63
2022-10-09T09:51:34.169Z,2.85
2022-10-09T09:57:10.619Z,3.05
2022-10-09T10:02:12.398Z,3.25
2022-10-09T10:07:13.786Z,3.45
2022-10-09T10:12:16.111Z,3.20
2022-10-09T10:17:25.312Z,2.72
2022-10-09T10:22:27.558Z,3.50
2022-10-09T10:27:33.349Z,3.47
2022-10-09T10:32:39.015Z,3.72
2022-10-09T10:38:13.338Z,3.17
2022-10-09T10:43:26.962Z,3.00
2022-10-09T10:48:30.762Z,3.83
2022-10-09T10:53:45.856Z,3.22
2022-10-09T10:58:47.233Z,3.53
2022-10-09T11:04:04.057Z,3.22
2022-10-09T11:09:17.699Z,3.00
2022-10-09T11:14:35.544Z,3.40
2022-10-09T11:19:45.361Z,3.35
2022-10-09T11:25:05.803Z,3.13
2022-10-09T11:30:10.422Z,2.55
2022-10-09T11:35:11.845Z,2.55
2022-10-09T11:40:18.444Z,2.78
2022-10-09T11:45:30.296Z,3.28
2022-10-09T11:50:50.464Z,3.10
2022-10-09T11:56:02.424Z,3.70
2022-10-09T12:01:12.024Z,3.10
2022-10-09T12:11:16.951Z,3.63
2022-10-09T12:16:32.462Z,3.33
2022-10-09T12:21:38.179Z,3.60
2022-10-09T12:26:40.031Z,2.60
2022-10-09T12:31:41.676Z,2.80
2022-10-09T12:36:43.055Z,3.42
2022-10-09T12:41:46.180Z,2.78
2022-10-09T12:46:47.646Z,3.35
2022-10-09T12:51:56.105Z,2.60
2022-10-09T12:56:59.617Z,3.35
2022-10-09T13:02:01.705Z,3.00
2022-10-09T13:07:06.522Z,3.05
2022-10-09T13:12:10.027Z,2.92
2022-10-09T13:17:33.222Z,3.38
2022-10-09T13:22:36.441Z,3.20
2022-10-09T13:27:38.876Z,3.38
2022-10-09T13:32:40.262Z,3.08
2022-10-09T13:37:42.123Z,3.05
2022-10-09T13:42:46.826Z,2.92
2022-10-09T13:47:50.261Z,3.33
2022-10-09T13:52:51.983Z,3.20
2022-10-09T13:57:54.164Z,3.03
2022-10-09T14:02:55.756Z,3.15
2022-10-09T14:08:00.289Z,3.17
2022-10-09T14:13:01.731Z,3.22
2022-10-09T14:18:03.113Z,2.97
2022-10-09T14:23:04.510Z,2.92
2022-10-09T14:28:06.163Z,3.05
2022-10-09T14:33:07.578Z,2.85
2022-10-09T14:38:09.063Z,3.00
2022-10-09T14:43:11.236Z,2.70
2022-10-09T14:48:12.692Z,2.38
2022-10-09T14:53:14.293Z,3.00
2022-10-09T14:58:15.760Z,2.88
2022-10-09T15:03:17.232Z,2.55
2022-10-09T15:08:18.605Z,2.70
2022-10-09T15:13:20.381Z,2.38
2022-10-09T15:18:21.781Z,2.60
2022-10-09T15:23:23.419Z,2.45
2022-10-09T15:28:25.626Z,2.20
2022-10-09T15:33:27.494Z,3.38
2022-10-09T15:38:30.975Z,2.63
2022-10-09T15:43:37.546Z,2.63
2022-10-09T15:54:01.188Z,2.45
2022-10-09T15:59:02.594Z,2.90
2022-10-09T16:04:04.057Z,2.70
2022-10-09T16:09:05.499Z,2.72
2022-10-09T16:14:07.062Z,2.53
2022-10-09T16:19:08.451Z,3.65
2022-10-09T16:24:09.805Z,3.13
2022-10-09T16:29:11.400Z,3.20
2022-10-09T16:34:12.822Z,3.00
2022-10-09T16:39:14.325Z,2.90
2022-10-09T16:44:17.047Z,2.78
2022-10-09T16:49:21.395Z,2.88
2022-10-09T16:54:25.755Z,2.80
2022-10-09T16:59:27.316Z,2.78
2022-10-09T17:04:28.722Z,2.78
2022-10-09T17:09:30.363Z,2.60
2022-10-09T17:14:31.761Z,2.47
2022-10-09T17:19:33.228Z,2.88
2022-10-09T17:24:34.650Z,2.47
2022-10-09T17:29:36.504Z,2.72
2022-10-09T17:34:43.047Z,2.78
2022-10-09T17:39:48.492Z,2.90
2022-10-09T17:44:52.616Z,2.65
2022-10-09T17:49:56.526Z,2.60
2022-10-09T17:54:57.936Z,2.60
2022-10-09T17:59:59.284Z,2.92
2022-10-09T18:05:00.680Z,2.72
2022-10-09T18:10:02.092Z,2.65
2022-10-09T18:15:03.820Z,2.63
2022-10-09T18:20:05.707Z,3.35
2022-10-09T18:25:07.334Z,3.08
2022-10-09T18:30:09.162Z,2.90
2022-10-09T18:35:10.541Z,3.40
2022-10-09T18:40:14.160Z,2.97
2022-10-09T18:45:16.472Z,2.70
2022-10-09T18:50:17.875Z,2.95
2022-10-09T18:55:19.311Z,2.28
2022-10-09T19:00:23.465Z,2.53
2022-10-09T19:05:24.960Z,2.70
2022-10-09T19:10:26.463Z,2.60
2022-10-09T19:15:27.838Z,2.60
2022-10-09T19:20:29.352Z,2.40
2022-10-09T19:25:32.948Z,2.35
2022-10-09T19:30:34.463Z,2.90
2022-10-09T19:35:36.737Z,2.90
2022-10-09T19:40:38.235Z,3.10
2022-10-09T19:45:39.978Z,3.05
2022-10-09T19:50:42.246Z,2.92
2022-10-09T19:55:43.951Z,2.88
2022-10-09T20:00:48.112Z,3.63
2022-10-09T20:05:49.699Z,3.15
2022-10-09T20:10:51.133Z,3.20
2022-10-09T20:15:52.588Z,2.90
2022-10-09T20:20:54.417Z,3.45
2022-10-09T20:26:04.354Z,2.92
2022-10-09T20:31:07.867Z,3.63
2022-10-09T20:36:17.422Z,3.50
2022-10-09T20:41:18.933Z,3.28
2022-10-09T20:46:22.406Z,3.47
2022-10-09T20:51:24.261Z,3.03
2022-10-09T20:56:27.480Z,2.90
2022-10-09T21:01:28.985Z,3.47
2022-10-09T21:06:30.544Z,3.08
2022-10-09T21:11:32.575Z,3.38
2022-10-09T21:16:36.889Z,3.20
2022-10-09T21:21:38.319Z,3.65
2022-10-09T21:26:40.855Z,3.97
2022-10-09T21:31:42.246Z,3.53
2022-10-09T21:42:06.690Z,3.40
2022-10-09T21:47:10.878Z,3.72
2022-10-09T21:52:12.258Z,3.72
2022-10-09T21:57:13.592Z,3.30
2022-10-09T22:02:14.971Z,3.33
2022-10-09T22:07:16.377Z,3.90
2022-10-09T22:12:17.842Z,3.47
2022-10-09T22:17:19.275Z,3.38
2022-10-09T22:22:23.569Z,3.40
2022-10-09T22:27:24.945Z,3.30
2022-10-09T22:32:26.372Z,3.92
2022-10-09T22:37:27.775Z,3.00
2022-10-09T22:42:29.243Z,3.30
2022-10-09T22:47:30.582Z,3.00
2022-10-09T22:52:31.878Z,3.17
2022-10-09T22:57:33.226Z,2.88
2022-10-09T23:02:34.570Z,3.38
2022-10-09T23:07:35.951Z,3.60
2022-10-09T23:12:37.326Z,3.45
2022-10-09T23:17:38.695Z,3.70
2022-10-09T23:22:40.059Z,4.20
2022-10-09T23:27:41.444Z,4.10
2022-10-09T23:32:42.757Z,3.92
2022-10-09T23:37:44.104Z,3.90
2022-10-09T23:42:45.595Z,4.00
2022-10-09T23:47:46.935Z,3.92
2022-10-09T23:52:48.512Z,4.25
2022-10-09T23:57:50.376Z,4.70
